METAR Data
IDs: Format: Raw Decoded Include TAF

Data at: 0017 UTC 30 May 2020

PAOR 292353Z AUTO 00000KT 10SM BKN085 21/02 A2992 RMK AO2 SLP130 60000 T02110022 10228 20167 58015 TSNO